sensor_id;sensor_type;location;lat;lon;timestamp;P1;durP1;ratioP1;P2;durP2;ratioP2
13366;SDS011;6752;52.612;13.630;2023-04-03T00:01:34;13.80;;;7.90;;
13366;SDS011;6752;52.612;13.630;2023-04-03T00:06:37;12.13;;;7.80;;
13366;SDS011;6752;52.612;13.630;2023-04-03T00:11:39;11.75;;;7.65;;
13366;SDS011;6752;52.612;13.630;2023-04-03T00:16:42;19.52;;;8.48;;
13366;SDS011;6752;52.612;13.630;2023-04-03T00:22:02;9.30;;;7.03;;
13366;SDS011;6752;52.612;13.630;2023-04-03T00:27:23;14.13;;;8.35;;
13366;SDS011;6752;52.612;13.630;2023-04-03T00:32:44;17.30;;;9.13;;
13366;SDS011;6752;52.612;13.630;2023-04-03T00:38:04;11.38;;;7.80;;
13366;SDS011;6752;52.612;13.630;2023-04-03T00:43:25;9.35;;;7.32;;
13366;SDS011;6752;52.612;13.630;2023-04-03T00:54:09;13.85;;;7.37;;
13366;SDS011;6752;52.612;13.630;2023-04-03T00:59:34;19.35;;;8.07;;
13366;SDS011;6752;52.612;13.630;2023-04-03T01:04:33;11.95;;;8.50;;
13366;SDS011;6752;52.612;13.630;2023-04-03T01:09:34;11.43;;;7.95;;
13366;SDS011;6752;52.612;13.630;2023-04-03T01:14:37;9.88;;;7.12;;
13366;SDS011;6752;52.612;13.630;2023-04-03T01:25:53;15.07;;;8.70;;
13366;SDS011;6752;52.612;13.630;2023-04-03T01:36:39;14.82;;;8.77;;
13366;SDS011;6752;52.612;13.630;2023-04-03T01:47:21;8.95;;;8.05;;
13366;SDS011;6752;52.612;13.630;2023-04-03T01:52:41;11.07;;;7.65;;
13366;SDS011;6752;52.612;13.630;2023-04-03T01:58:02;15.55;;;9.13;;
13366;SDS011;6752;52.612;13.630;2023-04-03T02:03:22;10.77;;;7.93;;
13366;SDS011;6752;52.612;13.630;2023-04-03T02:08:25;14.18;;;8.00;;
13366;SDS011;6752;52.612;13.630;2023-04-03T02:13:46;14.43;;;8.52;;
13366;SDS011;6752;52.612;13.630;2023-04-03T02:19:06;10.57;;;7.65;;
13366;SDS011;6752;52.612;13.630;2023-04-03T02:24:27;14.43;;;8.65;;
13366;SDS011;6752;52.612;13.630;2023-04-03T02:29:30;10.90;;;7.95;;
13366;SDS011;6752;52.612;13.630;2023-04-03T02:34:32;13.25;;;7.28;;
13366;SDS011;6752;52.612;13.630;2023-04-03T02:39:35;14.57;;;8.65;;
13366;SDS011;6752;52.612;13.630;2023-04-03T02:44:55;13.00;;;7.95;;
13366;SDS011;6752;52.612;13.630;2023-04-03T02:49:58;16.73;;;8.93;;
13366;SDS011;6752;52.612;13.630;2023-04-03T02:55:19;12.10;;;7.35;;
13366;SDS011;6752;52.612;13.630;2023-04-03T03:00:39;10.80;;;8.10;;
13366;SDS011;6752;52.612;13.630;2023-04-03T03:05:42;14.77;;;7.95;;
13366;SDS011;6752;52.612;13.630;2023-04-03T03:10:44;11.40;;;9.18;;
13366;SDS011;6752;52.612;13.630;2023-04-03T03:15:46;9.65;;;8.40;;
13366;SDS011;6752;52.612;13.630;2023-04-03T03:20:52;13.70;;;8.52;;
13366;SDS011;6752;52.612;13.630;2023-04-03T03:26:01;10.35;;;8.60;;
13366;SDS011;6752;52.612;13.630;2023-04-03T03:31:02;16.00;;;9.45;;
13366;SDS011;6752;52.612;13.630;2023-04-03T03:36:23;15.70;;;8.68;;
13366;SDS011;6752;52.612;13.630;2023-04-03T03:41:44;18.27;;;8.55;;
13366;SDS011;6752;52.612;13.630;2023-04-03T03:47:04;11.80;;;9.52;;
13366;SDS011;6752;52.612;13.630;2023-04-03T03:52:25;14.15;;;8.57;;
13366;SDS011;6752;52.612;13.630;2023-04-03T03:57:28;10.32;;;9.20;;
13366;SDS011;6752;52.612;13.630;2023-04-03T04:02:48;14.00;;;9.25;;
13366;SDS011;6752;52.612;13.630;2023-04-03T04:07:56;13.40;;;8.82;;
13366;SDS011;6752;52.612;13.630;2023-04-03T04:12:59;15.07;;;8.27;;
13366;SDS011;6752;52.612;13.630;2023-04-03T04:18:01;15.30;;;8.38;;
13366;SDS011;6752;52.612;13.630;2023-04-03T04:23:03;21.98;;;9.10;;
13366;SDS011;6752;52.612;13.630;2023-04-03T04:28:12;11.88;;;8.30;;
13366;SDS011;6752;52.612;13.630;2023-04-03T04:33:14;12.43;;;8.60;;
13366;SDS011;6752;52.612;13.630;2023-04-03T04:38:17;22.48;;;10.43;;
13366;SDS011;6752;52.612;13.630;2023-04-03T04:43:19;13.10;;;9.13;;
13366;SDS011;6752;52.612;13.630;2023-04-03T04:48:22;19.83;;;10.27;;
13366;SDS011;6752;52.612;13.630;2023-04-03T04:53:24;14.45;;;8.40;;
13366;SDS011;6752;52.612;13.630;2023-04-03T04:58:45;12.85;;;8.55;;
13366;SDS011;6752;52.612;13.630;2023-04-03T05:04:00;10.07;;;8.43;;
13366;SDS011;6752;52.612;13.630;2023-04-03T05:09:05;13.73;;;8.43;;
13366;SDS011;6752;52.612;13.630;2023-04-03T05:14:07;14.85;;;8.88;;
13366;SDS011;6752;52.612;13.630;2023-04-03T05:19:09;18.65;;;8.43;;
13366;SDS011;6752;52.612;13.630;2023-04-03T05:24:13;14.60;;;8.35;;
13366;SDS011;6752;52.612;13.630;2023-04-03T05:29:33;13.45;;;7.72;;
13366;SDS011;6752;52.612;13.630;2023-04-03T05:34:36;16.37;;;8.38;;
13366;SDS011;6752;52.612;13.630;2023-04-03T05:39:42;12.30;;;8.48;;
13366;SDS011;6752;52.612;13.630;2023-04-03T05:44:45;13.20;;;8.05;;
13366;SDS011;6752;52.612;13.630;2023-04-03T05:49:51;12.32;;;7.18;;
13366;SDS011;6752;52.612;13.630;2023-04-03T05:54:54;19.92;;;8.35;;
13366;SDS011;6752;52.612;13.630;2023-04-03T05:59:59;12.50;;;7.22;;
13366;SDS011;6752;52.612;13.630;2023-04-03T06:05:04;13.52;;;7.87;;
13366;SDS011;6752;52.612;13.630;2023-04-03T06:10:07;14.90;;;7.72;;
13366;SDS011;6752;52.612;13.630;2023-04-03T06:15:12;16.50;;;8.07;;
13366;SDS011;6752;52.612;13.630;2023-04-03T06:20:14;15.02;;;7.43;;
13366;SDS011;6752;52.612;13.630;2023-04-03T06:35:33;13.05;;;6.95;;
13366;SDS011;6752;52.612;13.630;2023-04-03T06:40:36;9.07;;;6.93;;
13366;SDS011;6752;52.612;13.630;2023-04-03T06:45:39;11.73;;;6.70;;
13366;SDS011;6752;52.612;13.630;2023-04-03T06:50:46;12.77;;;7.00;;
13366;SDS011;6752;52.612;13.630;2023-04-03T06:55:48;13.68;;;6.18;;
13366;SDS011;6752;52.612;13.630;2023-04-03T07:00:51;9.68;;;6.05;;
13366;SDS011;6752;52.612;13.630;2023-04-03T07:05:55;12.47;;;6.77;;
13366;SDS011;6752;52.612;13.630;2023-04-03T07:10:57;7.87;;;5.55;;
13366;SDS011;6752;52.612;13.630;2023-04-03T07:16:05;9.88;;;6.28;;
13366;SDS011;6752;52.612;13.630;2023-04-03T07:21:08;11.32;;;5.80;;
13366;SDS011;6752;52.612;13.630;2023-04-03T07:26:10;13.93;;;6.50;;
13366;SDS011;6752;52.612;13.630;2023-04-03T07:31:13;9.85;;;5.72;;
13366;SDS011;6752;52.612;13.630;2023-04-03T07:36:18;19.48;;;6.03;;
13366;SDS011;6752;52.612;13.630;2023-04-03T07:41:23;9.23;;;5.68;;
13366;SDS011;6752;52.612;13.630;2023-04-03T07:46:25;8.85;;;5.43;;
13366;SDS011;6752;52.612;13.630;2023-04-03T07:56:30;10.00;;;5.65;;
13366;SDS011;6752;52.612;13.630;2023-04-03T08:01:32;10.38;;;4.87;;
13366;SDS011;6752;52.612;13.630;2023-04-03T08:06:37;8.25;;;5.18;;
13366;SDS011;6752;52.612;13.630;2023-04-03T08:11:43;9.03;;;5.07;;
13366;SDS011;6752;52.612;13.630;2023-04-03T08:16:44;8.95;;;4.80;;
13366;SDS011;6752;52.612;13.630;2023-04-03T08:21:46;11.20;;;5.95;;
13366;SDS011;6752;52.612;13.630;2023-04-03T08:26:48;9.57;;;4.93;;
13366;SDS011;6752;52.612;13.630;2023-04-03T08:31:50;11.20;;;4.87;;
13366;SDS011;6752;52.612;13.630;2023-04-03T08:36:53;8.35;;;4.97;;
13366;SDS011;6752;52.612;13.630;2023-04-03T08:41:57;7.60;;;4.18;;
13366;SDS011;6752;52.612;13.630;2023-04-03T08:47:09;6.40;;;3.90;;
13366;SDS011;6752;52.612;13.630;2023-04-03T08:52:19;9.35;;;4.18;;
13366;SDS011;6752;52.612;13.630;2023-04-03T08:57:38;7.40;;;3.70;;
13366;SDS011;6752;52.612;13.630;2023-04-03T09:07:55;5.50;;;3.53;;
13366;SDS011;6752;52.612;13.630;2023-04-03T09:18:25;7.30;;;4.28;;
13366;SDS011;6752;52.612;13.630;2023-04-03T09:23:45;7.72;;;4.70;;
13366;SDS011;6752;52.612;13.630;2023-04-03T09:28:46;8.33;;;4.87;;
13366;SDS011;6752;52.612;13.630;2023-04-03T09:39:16;8.90;;;4.55;;
13366;SDS011;6752;52.612;13.630;2023-04-03T09:44:27;14.13;;;5.60;;
13366;SDS011;6752;52.612;13.630;2023-04-03T09:49:24;6.65;;;4.47;;
13366;SDS011;6752;52.612;13.630;2023-04-03T09:54:34;8.63;;;4.30;;
13366;SDS011;6752;52.612;13.630;2023-04-03T09:59:39;6.97;;;4.50;;
13366;SDS011;6752;52.612;13.630;2023-04-03T10:04:46;6.65;;;4.10;;
13366;SDS011;6752;52.612;13.630;2023-04-03T10:09:54;7.35;;;4.10;;
13366;SDS011;6752;52.612;13.630;2023-04-03T10:25:28;7.55;;;4.20;;
13366;SDS011;6752;52.612;13.630;2023-04-03T10:42:06;7.53;;;4.95;;
13366;SDS011;6752;52.612;13.630;2023-04-03T10:47:36;6.80;;;4.53;;
13366;SDS011;6752;52.612;13.630;2023-04-03T10:58:33;9.13;;;4.70;;
13366;SDS011;6752;52.612;13.630;2023-04-03T11:03:54;8.15;;;4.80;;
13366;SDS011;6752;52.612;13.630;2023-04-03T11:25:24;7.53;;;5.20;;
13366;SDS011;6752;52.612;13.630;2023-04-03T11:30:54;10.57;;;5.18;;
13366;SDS011;6752;52.612;13.630;2023-04-03T11:36:30;6.18;;;4.20;;
13366;SDS011;6752;52.612;13.630;2023-04-03T11:41:50;7.93;;;5.28;;
13366;SDS011;6752;52.612;13.630;2023-04-03T11:47:11;8.57;;;4.35;;
13366;SDS011;6752;52.612;13.630;2023-04-03T11:58:03;8.87;;;3.77;;
13366;SDS011;6752;52.612;13.630;2023-04-03T12:08:46;7.20;;;3.20;;
13366;SDS011;6752;52.612;13.630;2023-04-03T12:14:14;4.87;;;3.40;;
13366;SDS011;6752;52.612;13.630;2023-04-03T12:19:34;5.62;;;3.12;;
13366;SDS011;6752;52.612;13.630;2023-04-03T12:24:54;8.30;;;3.72;;
13366;SDS011;6752;52.612;13.630;2023-04-03T12:30:21;6.95;;;3.78;;
13366;SDS011;6752;52.612;13.630;2023-04-03T12:35:51;5.82;;;3.35;;
13366;SDS011;6752;52.612;13.630;2023-04-03T12:46:38;7.55;;;3.50;;
13366;SDS011;6752;52.612;13.630;2023-04-03T12:51:54;6.95;;;3.55;;
13366;SDS011;6752;52.612;13.630;2023-04-03T13:02:36;6.47;;;3.62;;
13366;SDS011;6752;52.612;13.630;2023-04-03T13:08:05;9.57;;;4.05;;
13366;SDS011;6752;52.612;13.630;2023-04-03T13:13:20;7.55;;;4.22;;
13366;SDS011;6752;52.612;13.630;2023-04-03T13:18:41;9.65;;;3.95;;
13366;SDS011;6752;52.612;13.630;2023-04-03T13:24:02;6.18;;;4.65;;
13366;SDS011;6752;52.612;13.630;2023-04-03T13:29:25;5.05;;;4.12;;
13366;SDS011;6752;52.612;13.630;2023-04-03T13:34:46;8.75;;;5.12;;
13366;SDS011;6752;52.612;13.630;2023-04-03T13:45:27;7.43;;;4.53;;
13366;SDS011;6752;52.612;13.630;2023-04-03T13:51:00;7.85;;;4.47;;
13366;SDS011;6752;52.612;13.630;2023-04-03T14:01:46;7.28;;;3.87;;
13366;SDS011;6752;52.612;13.630;2023-04-03T14:07:06;6.93;;;3.58;;
13366;SDS011;6752;52.612;13.630;2023-04-03T14:12:31;8.10;;;3.30;;
13366;SDS011;6752;52.612;13.630;2023-04-03T14:17:51;9.13;;;3.62;;
13366;SDS011;6752;52.612;13.630;2023-04-03T14:23:11;7.68;;;3.85;;
13366;SDS011;6752;52.612;13.630;2023-04-03T14:28:32;6.57;;;3.67;;
13366;SDS011;6752;52.612;13.630;2023-04-03T14:33:53;8.13;;;4.20;;
13366;SDS011;6752;52.612;13.630;2023-04-03T14:39:16;6.90;;;3.97;;
13366;SDS011;6752;52.612;13.630;2023-04-03T14:44:34;8.27;;;4.60;;
13366;SDS011;6752;52.612;13.630;2023-04-03T14:49:55;8.88;;;4.57;;
13366;SDS011;6752;52.612;13.630;2023-04-03T14:55:16;7.00;;;3.95;;
13366;SDS011;6752;52.612;13.630;2023-04-03T15:00:36;10.00;;;4.28;;
13366;SDS011;6752;52.612;13.630;2023-04-03T15:05:56;6.28;;;4.12;;
13366;SDS011;6752;52.612;13.630;2023-04-03T15:11:17;6.15;;;4.47;;
13366;SDS011;6752;52.612;13.630;2023-04-03T15:16:38;10.15;;;4.55;;
13366;SDS011;6752;52.612;13.630;2023-04-03T15:21:59;7.03;;;4.15;;
13366;SDS011;6752;52.612;13.630;2023-04-03T15:27:20;9.23;;;4.80;;
13366;SDS011;6752;52.612;13.630;2023-04-03T15:32:41;6.82;;;4.47;;
13366;SDS011;6752;52.612;13.630;2023-04-03T15:38:01;6.70;;;4.05;;
13366;SDS011;6752;52.612;13.630;2023-04-03T15:43:22;8.60;;;4.32;;
13366;SDS011;6752;52.612;13.630;2023-04-03T15:48:43;8.15;;;3.60;;
13366;SDS011;6752;52.612;13.630;2023-04-03T15:54:04;7.80;;;3.72;;
13366;SDS011;6752;52.612;13.630;2023-04-03T15:59:24;6.60;;;4.10;;
13366;SDS011;6752;52.612;13.630;2023-04-03T16:04:45;5.95;;;3.67;;
13366;SDS011;6752;52.612;13.630;2023-04-03T16:10:06;6.40;;;3.30;;
13366;SDS011;6752;52.612;13.630;2023-04-03T16:15:26;8.57;;;3.92;;
13366;SDS011;6752;52.612;13.630;2023-04-03T16:20:47;6.43;;;4.12;;
13366;SDS011;6752;52.612;13.630;2023-04-03T16:26:08;7.18;;;4.32;;
13366;SDS011;6752;52.612;13.630;2023-04-03T16:31:29;7.85;;;4.30;;
13366;SDS011;6752;52.612;13.630;2023-04-03T16:36:50;10.60;;;4.50;;
13366;SDS011;6752;52.612;13.630;2023-04-03T16:52:51;7.75;;;4.30;;
13366;SDS011;6752;52.612;13.630;2023-04-03T16:58:12;9.23;;;4.90;;
13366;SDS011;6752;52.612;13.630;2023-04-03T17:03:33;9.40;;;4.75;;
13366;SDS011;6752;52.612;13.630;2023-04-03T17:08:53;9.68;;;5.60;;
13366;SDS011;6752;52.612;13.630;2023-04-03T17:14:14;7.85;;;4.50;;
13366;SDS011;6752;52.612;13.630;2023-04-03T17:19:35;6.82;;;3.90;;
13366;SDS011;6752;52.612;13.630;2023-04-03T17:24:56;12.65;;;4.40;;
13366;SDS011;6752;52.612;13.630;2023-04-03T17:30:16;7.40;;;4.10;;
13366;SDS011;6752;52.612;13.630;2023-04-03T17:35:37;10.38;;;4.78;;
13366;SDS011;6752;52.612;13.630;2023-04-03T17:40:58;8.35;;;4.95;;
13366;SDS011;6752;52.612;13.630;2023-04-03T17:46:18;8.57;;;4.90;;
13366;SDS011;6752;52.612;13.630;2023-04-03T17:51:40;7.05;;;4.70;;
13366;SDS011;6752;52.612;13.630;2023-04-03T17:57:00;5.72;;;4.70;;
13366;SDS011;6752;52.612;13.630;2023-04-03T18:02:21;7.72;;;4.70;;
13366;SDS011;6752;52.612;13.630;2023-04-03T18:07:42;8.27;;;4.95;;
13366;SDS011;6752;52.612;13.630;2023-04-03T18:13:05;8.07;;;4.60;;
13366;SDS011;6752;52.612;13.630;2023-04-03T18:18:06;10.93;;;5.70;;
13366;SDS011;6752;52.612;13.630;2023-04-03T18:23:08;10.10;;;5.15;;
13366;SDS011;6752;52.612;13.630;2023-04-03T18:33:12;7.25;;;5.37;;
13366;SDS011;6752;52.612;13.630;2023-04-03T18:38:15;8.05;;;5.50;;
13366;SDS011;6752;52.612;13.630;2023-04-03T18:43:20;11.85;;;5.47;;
13366;SDS011;6752;52.612;13.630;2023-04-03T18:48:22;8.55;;;6.45;;
13366;SDS011;6752;52.612;13.630;2023-04-03T18:53:24;9.65;;;6.00;;
13366;SDS011;6752;52.612;13.630;2023-04-03T18:58:27;11.57;;;5.75;;
13366;SDS011;6752;52.612;13.630;2023-04-03T19:03:29;11.20;;;5.30;;
13366;SDS011;6752;52.612;13.630;2023-04-03T19:08:31;12.98;;;5.85;;
13366;SDS011;6752;52.612;13.630;2023-04-03T19:13:34;9.07;;;6.05;;
13366;SDS011;6752;52.612;13.630;2023-04-03T19:18:36;13.27;;;6.10;;
13366;SDS011;6752;52.612;13.630;2023-04-03T19:23:38;15.75;;;6.03;;
13366;SDS011;6752;52.612;13.630;2023-04-03T19:28:41;9.32;;;5.87;;
13366;SDS011;6752;52.612;13.630;2023-04-03T19:38:45;9.00;;;6.20;;
13366;SDS011;6752;52.612;13.630;2023-04-03T19:43:48;8.65;;;5.97;;
13366;SDS011;6752;52.612;13.630;2023-04-03T19:48:50;8.95;;;6.20;;
13366;SDS011;6752;52.612;13.630;2023-04-03T19:53:52;13.55;;;6.75;;
13366;SDS011;6752;52.612;13.630;2023-04-03T19:58:54;9.95;;;6.10;;
13366;SDS011;6752;52.612;13.630;2023-04-03T20:03:57;10.13;;;7.03;;
13366;SDS011;6752;52.612;13.630;2023-04-03T20:08:59;10.98;;;6.55;;
13366;SDS011;6752;52.612;13.630;2023-04-03T20:14:02;12.23;;;6.95;;
13366;SDS011;6752;52.612;13.630;2023-04-03T20:19:04;12.68;;;6.80;;
13366;SDS011;6752;52.612;13.630;2023-04-03T20:24:06;11.75;;;6.62;;
13366;SDS011;6752;52.612;13.630;2023-04-03T20:29:09;20.00;;;7.95;;
13366;SDS011;6752;52.612;13.630;2023-04-03T20:34:11;12.98;;;6.68;;
13366;SDS011;6752;52.612;13.630;2023-04-03T20:39:13;10.52;;;6.57;;
13366;SDS011;6752;52.612;13.630;2023-04-03T20:44:16;9.52;;;6.47;;
13366;SDS011;6752;52.612;13.630;2023-04-03T20:49:18;12.90;;;6.68;;
13366;SDS011;6752;52.612;13.630;2023-04-03T20:54:20;14.20;;;6.80;;
13366;SDS011;6752;52.612;13.630;2023-04-03T20:59:23;11.02;;;6.47;;
13366;SDS011;6752;52.612;13.630;2023-04-03T21:04:28;10.43;;;6.28;;
13366;SDS011;6752;52.612;13.630;2023-04-03T21:20:33;10.48;;;7.78;;
13366;SDS011;6752;52.612;13.630;2023-04-03T21:25:36;9.95;;;6.78;;
13366;SDS011;6752;52.612;13.630;2023-04-03T21:30:38;12.32;;;7.45;;
13366;SDS011;6752;52.612;13.630;2023-04-03T21:35:40;16.70;;;7.28;;
13366;SDS011;6752;52.612;13.630;2023-04-03T21:40:43;12.15;;;8.30;;
13366;SDS011;6752;52.612;13.630;2023-04-03T21:45:45;9.65;;;7.45;;
13366;SDS011;6752;52.612;13.630;2023-04-03T21:50:48;13.50;;;7.40;;
13366;SDS011;6752;52.612;13.630;2023-04-03T21:55:53;11.68;;;8.98;;
13366;SDS011;6752;52.612;13.630;2023-04-03T22:00:56;14.68;;;8.35;;
13366;SDS011;6752;52.612;13.630;2023-04-03T22:05:58;11.35;;;7.40;;
13366;SDS011;6752;52.612;13.630;2023-04-03T22:11:05;12.55;;;7.35;;
13366;SDS011;6752;52.612;13.630;2023-04-03T22:16:06;13.05;;;7.60;;
13366;SDS011;6752;52.612;13.630;2023-04-03T22:21:08;14.35;;;8.20;;
13366;SDS011;6752;52.612;13.630;2023-04-03T22:26:12;14.75;;;7.22;;
13366;SDS011;6752;52.612;13.630;2023-04-03T22:41:18;11.02;;;7.70;;
13366;SDS011;6752;52.612;13.630;2023-04-03T22:56:24;16.02;;;8.70;;
13366;SDS011;6752;52.612;13.630;2023-04-03T23:01:26;12.05;;;8.38;;
13366;SDS011;6752;52.612;13.630;2023-04-03T23:06:29;12.85;;;8.57;;
13366;SDS011;6752;52.612;13.630;2023-04-03T23:11:31;10.13;;;7.87;;
13366;SDS011;6752;52.612;13.630;2023-04-03T23:16:33;14.48;;;7.93;;
13366;SDS011;6752;52.612;13.630;2023-04-03T23:26:38;12.93;;;7.95;;
13366;SDS011;6752;52.612;13.630;2023-04-03T23:31:40;14.45;;;8.43;;
13366;SDS011;6752;52.612;13.630;2023-04-03T23:36:42;13.62;;;7.75;;
13366;SDS011;6752;52.612;13.630;2023-04-03T23:41:45;15.10;;;8.23;;
13366;SDS011;6752;52.612;13.630;2023-04-03T23:51:05;14.93;;;8.05;;
13366;SDS011;6752;52.612;13.630;2023-04-03T23:56:07;11.52;;;8.55;;
